Time;durP1;ratioP1;P1;durP2;ratioP2;P2;SDS_P1;SDS_P2;PMS_P1;PMS_P2;Temp;Humidity;BMP_temperature;BMP_pressure;BME280_temperature;BME280_humidity;BME280_pressure;Samples;Min_cycle;Max_cycle;Signal;HPM_P1;HPM_P2
2022/04/28 00:01:53;;;;;;;19.05;9.95;;;;;;;8.47;92.67;101698.81;8271138;28;20056;-64
2022/04/28 00:05:54;;;;;;;21.40;9.68;;;;;;;8.51;91.41;101703.06;8255840;28;20487;-64
2022/04/28 00:09:54;;;;;;;17.17;9.10;;;;;;;8.55;91.38;101697.38;8226024;28;20074;-64
2022/04/28 00:13:55;;;;;;;16.23;9.13;;;;;;;8.28;92.56;101692.88;8237525;28;20137;-64
2022/04/28 00:17:56;;;;;;;15.95;9.85;;;;;;;8.49;92.73;101702.28;8256134;28;20046;-64
2022/04/28 00:21:56;;;;;;;15.95;9.48;;;;;;;8.45;92.30;101690.84;8258486;28;20035;-64
2022/04/28 00:25:56;;;;;;;18.92;9.07;;;;;;;8.65;90.69;101697.63;8260859;28;20122;-64
2022/04/28 00:29:57;;;;;;;14.80;8.10;;;;;;;8.73;89.71;101695.31;8261916;28;20038;-64
2022/04/28 00:33:57;;;;;;;14.38;8.00;;;;;;;8.84;88.70;101692.81;8254890;28;20030;-64
2022/04/28 00:37:58;;;;;;;14.27;8.32;;;;;;;8.82;88.29;101683.94;8262172;28;20149;-64
2022/04/28 00:41:58;;;;;;;17.38;8.13;;;;;;;8.65;89.05;101687.72;8276587;28;20062;-64
2022/04/28 00:45:59;;;;;;;18.57;7.90;;;;;;;8.80;88.51;101685.84;8258320;28;20407;-64
2022/04/28 00:51:00;;;;;;;15.55;7.97;;;;;;;8.99;86.91;101691.75;8249797;28;20282;-64
2022/04/28 00:54:19;;;;;;;16.25;8.10;;;;;;;8.91;87.01;101694.13;8261123;28;20041;-65
2022/04/28 00:58:20;;;;;;;15.93;7.97;;;;;;;9.00;87.16;101690.81;8261422;28;20415;-63
2022/04/28 01:02:20;;;;;;;17.40;8.40;;;;;;;8.97;87.18;101688.31;8261353;28;20365;-63
2022/04/28 01:06:21;;;;;;;14.80;7.78;;;;;;;8.92;86.47;101683.22;8260255;28;20895;-63
2022/04/28 01:10:22;;;;;;;20.15;7.40;;;;;;;8.96;86.14;101691.97;8255804;28;20073;-63
2022/04/28 01:14:22;;;;;;;18.63;7.65;;;;;;;8.94;85.81;101688.53;8264666;28;20487;-63
2022/04/28 01:18:23;;;;;;;12.50;7.45;;;;;;;8.98;86.11;101700.81;8252364;28;20042;-63
2022/04/28 01:22:25;;;;;;;15.98;7.78;;;;;;;8.96;86.01;101697.34;8225317;28;20027;-63
2022/04/28 01:26:27;;;;;;;22.38;7.75;;;;;;;8.86;87.19;101691.72;8258056;28;20411;-63
2022/04/28 01:30:28;;;;;;;14.50;8.10;;;;;;;8.52;88.26;101689.50;8260049;28;20050;-63
2022/04/28 01:34:28;;;;;;;17.77;8.23;;;;;;;8.41;90.39;101693.81;8274020;28;20363;-63
2022/04/28 01:38:29;;;;;;;16.55;8.68;;;;;;;8.36;90.45;101704.06;8258709;28;20041;-63
2022/04/28 01:42:29;;;;;;;19.17;8.48;;;;;;;8.11;90.83;101702.00;8258949;28;20042;-63
2022/04/28 01:46:29;;;;;;;21.35;8.48;;;;;;;8.12;91.72;101700.16;8256172;28;20038;-63
2022/04/28 01:50:30;;;;;;;18.92;8.70;;;;;;;8.04;92.68;101696.13;8243918;28;20202;-63
2022/04/28 01:55:01;;;;;;;18.90;8.88;;;;;;;7.98;91.94;101701.91;8227033;28;20039;-63
2022/04/28 01:58:51;;;;;;;16.30;8.13;;;;;;;7.85;92.47;101705.44;8246457;28;20046;-63
2022/04/28 02:02:51;;;;;;;18.98;8.45;;;;;;;7.89;93.00;101705.16;8241605;28;20492;-63
2022/04/28 02:06:52;;;;;;;14.93;8.88;;;;;;;7.81;93.20;101702.06;8225885;28;20035;-63
2022/04/28 02:10:52;;;;;;;17.25;9.05;;;;;;;7.86;93.62;101708.06;8257315;28;20414;-63
2022/04/28 02:14:53;;;;;;;20.75;9.23;;;;;;;7.72;93.52;101704.47;8263629;28;20035;-63
2022/04/28 02:18:54;;;;;;;23.40;9.73;;;;;;;7.53;94.23;101701.16;8226989;28;20523;-63
2022/04/28 02:22:54;;;;;;;20.20;9.63;;;;;;;7.61;95.29;101707.81;8257186;28;20424;-63
2022/04/28 02:26:54;;;;;;;18.75;9.93;;;;;;;7.53;95.38;101711.91;8255231;28;20035;-63
2022/04/28 02:30:55;;;;;;;16.80;9.45;;;;;;;7.42;96.31;101712.59;8226416;28;20522;-63
2022/04/28 02:34:55;;;;;;;21.17;10.27;;;;;;;7.37;96.42;101711.97;8225660;28;20046;-63
2022/04/28 02:38:56;;;;;;;25.17;10.20;;;;;;;7.43;96.43;101714.31;8225536;28;20054;-63
2022/04/28 02:42:56;;;;;;;17.95;10.27;;;;;;;7.44;96.78;101716.03;8240503;28;20266;-63
2022/04/28 02:46:57;;;;;;;19.38;10.18;;;;;;;7.44;96.61;101710.63;8255475;28;20372;-63
2022/04/28 02:50:57;;;;;;;22.45;10.45;;;;;;;7.30;97.26;101712.44;8254844;28;20057;-63
2022/04/28 02:54:57;;;;;;;19.60;10.43;;;;;;;7.31;97.88;101715.03;8257468;28;20062;-63
2022/04/28 02:58:58;;;;;;;21.42;10.50;;;;;;;7.08;99.64;101707.44;8257585;28;20046;-63
2022/04/28 03:02:58;;;;;;;19.17;10.85;;;;;;;6.94;100.00;101704.69;8256920;28;20475;-63
2022/04/28 03:11:20;;;;;;;23.15;11.82;;;;;;;6.88;100.00;101715.78;8257463;28;20499;-63
2022/04/28 03:15:20;;;;;;;26.20;10.90;;;;;;;6.80;100.00;101723.41;8262447;28;20680;-63
2022/04/28 03:19:20;;;;;;;19.10;11.45;;;;;;;6.90;100.00;101719.28;8257713;28;20113;-63
2022/04/28 03:23:21;;;;;;;24.17;11.27;;;;;;;6.80;100.00;101720.72;8257193;28;20048;-63
2022/04/28 03:27:22;;;;;;;22.98;11.00;;;;;;;6.75;100.00;101717.47;8257286;28;20513;-63
2022/04/28 03:31:23;;;;;;;19.38;12.07;;;;;;;6.71;100.00;101723.94;8257283;28;20406;-63
2022/04/28 03:35:23;;;;;;;21.50;11.27;;;;;;;6.73;100.00;101732.78;8257083;28;20041;-63
2022/04/28 03:39:23;;;;;;;21.55;10.68;;;;;;;6.45;100.00;101732.59;8250851;28;20038;-63
2022/04/28 03:43:25;;;;;;;21.30;10.45;;;;;;;6.16;100.00;101733.31;8257184;28;20041;-63
2022/04/28 03:47:32;;;;;;;23.58;12.20;;;;;;;6.00;100.00;101733.28;8255988;28;20030;-63
2022/04/28 03:51:32;;;;;;;20.15;10.77;;;;;;;5.93;100.00;101733.69;8256911;28;20101;-63
2022/04/28 03:55:32;;;;;;;23.60;12.05;;;;;;;5.89;100.00;101737.50;8262938;28;20559;-63
2022/04/28 03:59:33;;;;;;;23.83;12.35;;;;;;;5.85;100.00;101735.91;8264007;28;20034;-63
2022/04/28 04:03:33;;;;;;;33.00;13.18;;;;;;;5.82;100.00;101730.69;8256126;28;20114;-63
2022/04/28 04:07:35;;;;;;;23.08;11.48;;;;;;;5.80;100.00;101738.81;8273615;28;20116;-63
2022/04/28 04:11:36;;;;;;;25.08;12.40;;;;;;;5.98;100.00;101731.66;8285460;28;20264;-63
2022/04/28 04:15:36;;;;;;;24.73;11.40;;;;;;;6.09;100.00;101745.34;8265359;28;20081;-63
2022/04/28 04:19:37;;;;;;;19.05;11.73;;;;;;;5.91;100.00;101747.19;8257156;28;20058;-63
2022/04/28 04:23:37;;;;;;;28.95;12.77;;;;;;;6.04;100.00;101742.06;8226602;28;20117;-63
2022/04/28 04:27:38;;;;;;;25.50;12.32;;;;;;;6.05;100.00;101751.84;8238393;28;20511;-63
2022/04/28 04:32:38;;;;;;;26.38;12.68;;;;;;;6.11;100.00;101751.50;8219680;28;20038;-63
2022/04/28 04:35:58;;;;;;;19.77;11.43;;;;;;;5.93;100.00;101757.84;8252682;28;20116;-63
2022/04/28 04:39:59;;;;;;;26.25;12.60;;;;;;;6.24;100.00;101767.81;8259894;28;20034;-63
2022/04/28 04:43:59;;;;;;;24.02;11.18;;;;;;;5.51;100.00;101760.03;8260643;28;20034;-63
2022/04/28 04:48:00;;;;;;;28.45;13.30;;;;;;;6.12;100.00;101772.03;8259938;28;20450;-63
2022/04/28 04:52:02;;;;;;;28.58;12.90;;;;;;;6.32;100.00;101779.03;8259570;28;20086;-63
2022/04/28 04:56:02;;;;;;;29.13;11.88;;;;;;;6.19;100.00;101783.31;8249376;28;20487;-63
2022/04/28 05:00:04;;;;;;;27.48;12.65;;;;;;;6.34;100.00;101788.72;8254938;28;20460;-63
2022/04/28 05:04:06;;;;;;;26.85;12.82;;;;;;;6.44;100.00;101795.34;8257616;28;20046;-63
2022/04/28 05:08:06;;;;;;;27.33;13.35;;;;;;;6.46;100.00;101782.69;8290604;28;20506;-63
2022/04/28 05:12:08;;;;;;;23.88;13.05;;;;;;;6.53;100.00;101792.16;8285378;28;20435;-63
2022/04/28 05:16:08;;;;;;;22.38;12.25;;;;;;;6.80;100.00;101798.66;8242678;28;20317;-63
2022/04/28 05:20:09;;;;;;;24.13;12.73;;;;;;;7.28;100.00;101801.28;8236959;28;20042;-63
2022/04/28 05:24:09;;;;;;;24.08;12.52;;;;;;;7.45;100.00;101806.56;8256627;28;20054;-63
2022/04/28 05:28:10;;;;;;;20.40;12.18;;;;;;;7.61;100.00;101796.63;8256468;28;20049;-63
2022/04/28 05:32:10;;;;;;;22.00;11.88;;;;;;;7.76;98.58;101802.91;8267374;28;20112;-63
2022/04/28 05:36:13;;;;;;;22.20;12.50;;;;;;;8.18;97.76;101807.53;8256000;28;20579;-63
2022/04/28 05:40:15;;;;;;;22.58;11.88;;;;;;;8.58;97.43;101814.91;8259531;28;20518;-63
2022/04/28 05:48:37;;;;;;;28.88;12.15;;;;;;;8.99;94.50;101821.22;8250639;28;20592;-63
2022/04/28 05:52:37;;;;;;;33.00;13.98;;;;;;;9.04;94.45;101824.50;8286225;28;20056;-63
2022/04/28 05:56:38;;;;;;;29.50;12.77;;;;;;;9.21;92.12;101817.03;8255779;28;20286;-63
2022/04/28 06:00:38;;;;;;;31.83;13.80;;;;;;;9.50;91.36;101825.91;8225718;28;20046;-63
2022/04/28 06:04:38;;;;;;;27.52;13.63;;;;;;;9.69;89.97;101823.72;8240304;28;20467;-63
2022/04/28 06:08:39;;;;;;;28.42;13.60;;;;;;;9.65;91.59;101827.59;8255085;28;20466;-63
2022/04/28 06:12:40;;;;;;;36.92;14.73;;;;;;;10.12;89.53;101827.13;8257530;28;20053;-63
2022/04/28 06:16:41;;;;;;;27.63;13.88;;;;;;;10.56;88.64;101833.84;8257371;28;20088;-63
2022/04/28 06:20:42;;;;;;;28.52;14.20;;;;;;;10.47;87.23;101829.09;8257887;28;20065;-63
2022/04/28 06:24:42;;;;;;;32.25;14.60;;;;;;;10.83;85.33;101839.97;8265420;28;20026;-63
2022/04/28 06:28:43;;;;;;;36.03;13.80;;;;;;;10.83;87.27;101837.28;8256372;28;20395;-63
2022/04/28 06:32:43;;;;;;;25.33;13.80;;;;;;;10.93;83.26;101838.34;8235049;28;20066;-63
2022/04/28 06:36:44;;;;;;;26.10;14.20;;;;;;;11.13;85.17;101839.63;8242550;28;20049;-64
2022/04/28 06:40:44;;;;;;;30.17;13.85;;;;;;;11.45;83.67;101836.28;8270950;28;20057;-64
2022/04/28 06:44:45;;;;;;;29.30;14.88;;;;;;;11.45;81.96;101848.94;8263382;28;20505;-64
2022/04/28 06:48:47;;;;;;;26.02;14.48;;;;;;;11.37;80.88;101844.09;8225161;28;20035;-64
2022/04/28 06:52:48;;;;;;;23.98;13.73;;;;;;;11.88;79.81;101856.47;8224704;28;20492;-64
2022/04/28 06:56:48;;;;;;;26.88;15.10;;;;;;;11.55;79.25;101858.09;8255333;28;20474;-64
2022/04/28 07:00:50;;;;;;;27.20;13.57;;;;;;;11.84;80.04;101854.97;8255159;28;20293;-64
2022/04/28 07:04:50;;;;;;;27.27;13.95;;;;;;;12.33;78.74;101862.06;8255726;28;20023;-64
2022/04/28 07:08:51;;;;;;;28.00;14.82;;;;;;;12.72;79.28;101867.91;8257052;28;20065;-64
2022/04/28 07:12:51;;;;;;;32.47;15.27;;;;;;;12.66;77.76;101868.41;8258601;28;20529;-64
2022/04/28 07:16:51;;;;;;;32.47;14.98;;;;;;;12.72;77.35;101867.09;8256302;28;20042;-64
2022/04/28 07:20:52;;;;;;;30.13;15.48;;;;;;;12.89;75.85;101872.00;8254880;28;20034;-64
2022/04/28 07:24:52;;;;;;;29.10;15.15;;;;;;;12.92;78.37;101867.22;8256839;28;20034;-64
2022/04/28 07:28:53;;;;;;;32.00;15.45;;;;;;;13.28;76.73;101874.28;8260792;28;20084;-64
2022/04/28 07:32:53;;;;;;;28.75;15.48;;;;;;;12.97;77.88;101886.72;8256310;28;20121;-64
2022/04/28 07:36:54;;;;;;;30.00;16.02;;;;;;;13.29;74.55;101886.84;8263452;28;20035;-64
2022/04/28 07:40:55;;;;;;;25.17;15.27;;;;;;;13.22;74.15;101885.63;8260794;28;20034;-64
2022/04/28 07:44:56;;;;;;;29.95;16.58;;;;;;;13.53;74.13;101898.44;8262978;28;20353;-64
2022/04/28 07:48:56;;;;;;;27.35;16.77;;;;;;;13.62;74.31;101892.25;8262531;28;20030;-64
2022/04/28 07:52:57;;;;;;;28.95;15.48;;;;;;;13.98;74.32;101897.34;8262073;28;20076;-64
2022/04/28 07:56:57;;;;;;;28.40;15.93;;;;;;;13.85;73.03;101893.94;8262024;28;20097;-64
2022/04/28 08:00:59;;;;;;;28.45;16.45;;;;;;;14.03;73.87;101907.84;8261585;28;20045;-64
2022/04/28 08:04:59;;;;;;;30.08;16.90;;;;;;;14.66;73.06;101910.53;8260571;28;20121;-64
2022/04/28 08:09:00;;;;;;;28.27;17.40;;;;;;;14.53;72.71;101909.88;8260629;28;20041;-64
2022/04/28 08:13:00;;;;;;;31.83;17.30;;;;;;;14.80;73.58;101912.94;8263686;28;20043;-64
2022/04/28 08:17:01;;;;;;;26.35;17.48;;;;;;;15.29;71.14;101911.19;8262152;28;20398;-64
2022/04/28 08:21:02;;;;;;;28.40;17.63;;;;;;;14.92;70.24;101907.28;8261343;28;20050;-64
2022/04/28 08:25:02;;;;;;;28.88;17.90;;;;;;;15.03;70.50;101925.38;8260393;28;20034;-64
2022/04/28 08:29:03;;;;;;;32.30;17.23;;;;;;;14.79;71.59;101906.63;8253171;28;20042;-64
2022/04/28 08:33:04;;;;;;;44.38;19.08;;;;;;;15.15;71.28;101921.56;8247886;28;20105;-64
2022/04/28 08:37:04;;;;;;;30.33;18.65;;;;;;;14.99;71.45;101913.91;8249374;28;20065;-64
2022/04/28 08:41:09;;;;;;;32.80;19.50;;;;;;;15.18;70.37;101924.91;8247635;28;20043;-64
2022/04/28 08:45:10;;;;;;;34.70;18.23;;;;;;;15.22;70.71;101926.34;8263134;28;20446;-64
2022/04/28 08:49:12;;;;;;;35.63;20.30;;;;;;;15.55;68.99;101917.91;8247379;28;20116;-64
2022/04/28 08:53:13;;;;;;;32.90;19.50;;;;;;;15.89;69.44;101923.03;8257850;28;20047;-64
2022/04/28 08:57:14;;;;;;;32.97;18.98;;;;;;;16.23;69.47;101924.38;8269560;28;20134;-64
2022/04/28 09:01:14;;;;;;;36.80;20.88;;;;;;;16.49;67.34;101920.09;8255434;28;20147;-64
2022/04/28 09:05:18;;;;;;;38.55;19.80;;;;;;;16.29;66.60;101929.25;8251738;28;20047;-64
2022/04/28 09:09:19;;;;;;;32.58;19.73;;;;;;;16.86;67.59;101923.78;8244024;28;20065;-64
2022/04/28 09:14:20;;;;;;;36.45;20.13;;;;;;;16.75;64.68;101918.50;8262115;28;20050;-64
2022/04/28 09:17:41;;;;;;;25.42;16.48;;;;;;;17.19;62.29;101929.59;8259488;28;20045;-64
2022/04/28 09:21:42;;;;;;;24.90;16.52;;;;;;;17.04;61.69;101922.00;8229409;28;20067;-64
2022/04/28 09:25:43;;;;;;;27.42;15.65;;;;;;;17.09;59.12;101920.59;8250821;28;20065;-64
2022/04/28 09:29:46;;;;;;;29.77;15.23;;;;;;;17.28;56.71;101914.16;8255918;28;20069;-64
2022/04/28 09:33:48;;;;;;;25.83;16.02;;;;;;;17.65;59.23;101917.78;8256860;28;20054;-64
2022/04/28 09:37:48;;;;;;;25.25;15.95;;;;;;;17.58;59.17;101916.66;8250452;28;20043;-64
2022/04/28 09:42:50;;;;;;;21.85;13.43;;;;;;;18.07;55.24;101908.00;8258386;28;20062;-64
2022/04/28 09:46:10;;;;;;;21.38;14.43;;;;;;;18.92;55.14;101916.50;8256908;28;20246;-64
2022/04/28 09:50:13;;;;;;;25.10;15.67;;;;;;;19.89;55.00;101918.78;8255947;28;20049;-64
2022/04/28 09:54:17;;;;;;;22.63;14.68;;;;;;;21.12;50.66;101909.47;8256429;28;20285;-64
2022/04/28 09:58:18;;;;;;;25.90;15.00;;;;;;;21.86;49.96;101898.88;8257659;28;20050;-64
2022/04/28 10:02:22;;;;;;;26.80;14.35;;;;;;;21.95;48.98;101907.97;8252454;28;20038;-64
2022/04/28 10:06:24;;;;;;;24.20;14.02;;;;;;;22.05;47.45;101914.13;8226160;28;20039;-64
2022/04/28 10:10:26;;;;;;;20.20;13.38;;;;;;;22.67;46.23;101911.13;8225891;28;20049;-64
2022/04/28 10:14:28;;;;;;;22.63;14.55;;;;;;;22.53;46.94;101911.03;8226236;28;20399;-64
2022/04/28 10:18:35;;;;;;;24.92;15.88;;;;;;;22.97;46.88;101907.38;8243993;28;20041;-64
2022/04/28 10:22:37;;;;;;;26.30;15.57;;;;;;;22.33;47.70;101913.44;8250743;28;20079;-63
2022/04/28 10:32:33;;;;;;;26.40;16.20;;;;;;;22.62;46.33;101905.28;8248680;28;20454;-63
2022/04/28 10:35:44;;;;;;;26.95;15.80;;;;;;;23.41;46.08;101909.34;8230758;28;20079;-63
2022/04/28 10:39:45;;;;;;;23.88;14.65;;;;;;;22.98;48.10;101899.97;8249188;28;20108;-63
2022/04/28 10:43:46;;;;;;;28.58;16.33;;;;;;;22.82;46.88;101908.41;8251325;28;20038;-63
2022/04/28 10:47:46;;;;;;;23.85;15.88;;;;;;;23.09;46.06;101900.34;8255540;28;20049;-63
2022/04/28 10:51:47;;;;;;;20.70;15.80;;;;;;;23.46;46.16;101893.97;8255920;28;20130;-63
2022/04/28 10:55:49;;;;;;;23.63;14.80;;;;;;;23.45;45.70;101899.66;8252538;28;20292;-63
2022/04/28 10:59:49;;;;;;;23.00;15.73;;;;;;;23.39;45.60;101905.94;8254732;28;20293;-63
2022/04/28 11:08:09;;;;;;;26.90;16.33;;;;;;;23.64;45.64;101899.94;8386707;27;20397;-63
2022/04/28 11:12:13;;;;;;;23.55;15.80;;;;;;;23.84;46.45;101886.38;8361271;28;20044;-63
2022/04/28 11:16:13;;;;;;;25.75;17.13;;;;;;;23.53;45.73;101891.25;8379865;28;20033;-63
2022/04/28 11:20:18;;;;;;;25.50;17.42;;;;;;;24.17;45.47;101895.94;8387339;28;20389;-64
2022/04/28 11:24:19;;;;;;;23.52;16.92;;;;;;;24.74;43.63;101877.41;8405924;28;20036;-64
2022/04/28 11:28:21;;;;;;;24.50;17.98;;;;;;;24.48;43.86;101879.88;8391007;28;20063;-64
2022/04/28 11:32:22;;;;;;;22.45;15.95;;;;;;;24.04;45.22;101879.22;8380902;28;20160;-64
2022/04/28 11:36:26;;;;;;;30.45;19.23;;;;;;;24.67;43.11;101888.41;8381016;28;20496;-64
2022/04/28 11:40:26;;;;;;;;;;;;;;;24.34;43.58;101891.91;8381238;28;20039;-64
2022/04/28 11:44:27;;;;;;;26.93;17.20;;;;;;;23.30;44.92;101880.34;8385954;28;20344;-64
2022/04/28 11:48:29;;;;;;;31.67;18.07;;;;;;;23.57;44.77;101876.88;8413040;28;20044;-64
2022/04/28 11:52:33;;;;;;;26.35;17.40;;;;;;;23.21;44.89;101882.28;8382934;27;20340;-64
2022/04/28 11:56:35;;;;;;;33.45;18.63;;;;;;;21.41;48.95;101871.22;8382235;28;20035;-64
2022/04/28 12:00:37;;;;;;;30.77;18.00;;;;;;;20.20;51.04;101873.22;8397408;28;20052;-64
2022/04/28 12:04:41;;;;;;;27.42;18.05;;;;;;;19.05;52.08;101864.84;8404485;28;20048;-64
2022/04/28 12:14:22;;;;;;;26.80;17.25;;;;;;;18.98;53.46;101878.34;8387911;28;20047;-64
2022/04/28 12:14:26;;;;;;;31.50;17.88;;;;;;;18.39;54.17;101867.25;8382028;28;20114;-64
2022/04/28 12:19:30;;;;;;;27.95;15.93;;;;;;;18.83;53.37;101869.00;8367576;28;20025;-64
2022/04/28 12:22:37;;;;;;;29.27;17.30;;;;;;;19.13;54.84;101876.69;8364673;28;20040;-64
2022/04/28 12:26:41;;;;;;;24.00;17.00;;;;;;;19.56;52.68;101866.66;8385077;28;20040;-64
2022/04/28 12:30:53;;;;;;;26.80;17.33;;;;;;;19.61;52.40;101867.03;8390765;28;20072;-64
2022/04/28 12:35:03;;;;;;;34.50;18.42;;;;;;;18.48;52.55;101880.00;8391040;28;20466;-64
2022/04/28 12:39:03;;;;;;;33.80;17.70;;;;;;;18.38;53.06;101872.91;8390667;28;20037;-64
2022/04/28 12:43:04;;;;;;;26.33;16.85;;;;;;;18.94;54.61;101868.72;8363869;28;20049;-64
2022/04/28 12:47:05;;;;;;;29.50;16.48;;;;;;;18.62;52.73;101865.75;8382680;28;20186;-64
2022/04/28 12:51:08;;;;;;;31.23;15.85;;;;;;;18.74;54.30;101866.34;8370501;28;20103;-64
2022/04/28 12:55:09;;;;;;;26.55;16.67;;;;;;;18.78;53.02;101870.47;8354467;28;20450;-64
2022/04/28 12:59:13;;;;;;;26.67;17.00;;;;;;;18.92;52.01;101861.69;8362365;28;20037;-64
2022/04/28 13:03:27;;;;;;;28.27;16.13;;;;;;;18.57;52.71;101854.41;8370873;28;20124;-64
2022/04/28 13:07:28;;;;;;;28.45;16.52;;;;;;;18.69;52.39;101844.91;8356182;28;20557;-64
2022/04/28 13:11:31;;;;;;;27.33;15.40;;;;;;;18.58;52.54;101850.66;8352283;28;20676;-64
2022/04/28 13:15:31;;;;;;;30.95;15.77;;;;;;;18.52;54.34;101845.84;8386925;28;20056;-64
2022/04/28 13:19:32;;;;;;;23.83;15.57;;;;;;;18.48;52.63;101838.94;8366477;28;20044;-64
2022/04/28 13:23:32;;;;;;;23.77;14.23;;;;;;;18.65;53.53;101837.16;8354320;28;20048;-64
2022/04/28 13:27:33;;;;;;;23.05;13.57;;;;;;;18.73;51.98;101821.63;8381469;28;20060;-64
2022/04/28 13:31:35;;;;;;;20.90;13.98;;;;;;;18.56;52.69;101828.03;8386074;28;20043;-64
2022/04/28 13:35:36;;;;;;;24.27;13.65;;;;;;;18.55;52.79;101828.22;8375370;28;20350;-64
2022/04/28 13:39:37;;;;;;;28.40;14.90;;;;;;;18.42;52.35;101817.66;8376607;28;20091;-64
2022/04/28 13:43:38;;;;;;;24.95;14.43;;;;;;;18.58;52.67;101820.53;8363219;28;20025;-64
2022/04/28 13:47:38;;;;;;;24.85;14.07;;;;;;;18.37;53.35;101806.34;8362957;28;20048;-64
2022/04/28 13:51:39;;;;;;;23.40;13.95;;;;;;;18.36;52.82;101806.47;8360775;28;20041;-64
2022/04/28 13:55:41;;;;;;;22.48;13.52;;;;;;;18.48;52.85;101803.31;8349088;28;20048;-64
2022/04/28 13:59:41;;;;;;;23.95;12.82;;;;;;;18.45;52.25;101798.16;8362568;28;20036;-64
2022/04/28 14:03:42;;;;;;;22.65;13.38;;;;;;;18.47;53.41;101796.13;8365656;28;20036;-64
2022/04/28 14:07:43;;;;;;;22.75;12.23;;;;;;;18.46;52.13;101788.94;8363781;28;20481;-64
2022/04/28 14:11:45;;;;;;;19.92;11.52;;;;;;;18.65;51.52;101791.47;8370245;28;20119;-64
2022/04/28 14:15:46;;;;;;;16.65;11.40;;;;;;;18.64;50.39;101781.53;8377821;28;20074;-64
2022/04/28 14:19:46;;;;;;;16.58;11.95;;;;;;;18.51;50.81;101792.03;8366285;28;20043;-64
2022/04/28 14:23:47;;;;;;;20.95;10.88;;;;;;;18.37;51.04;101789.91;8379193;28;20102;-64
2022/04/28 14:27:47;;;;;;;17.67;10.57;;;;;;;18.68;51.02;101782.94;8378406;28;20044;-64
2022/04/28 14:31:48;;;;;;;15.75;10.93;;;;;;;18.38;50.44;101782.53;8356921;28;20943;-64
2022/04/28 14:35:48;;;;;;;21.42;11.18;;;;;;;18.49;51.09;101776.81;8360160;28;20502;-64
2022/04/28 14:39:48;;;;;;;17.92;10.15;;;;;;;18.47;50.56;101779.69;8363933;28;20041;-64
2022/04/28 14:43:49;;;;;;;18.55;10.77;;;;;;;18.46;50.28;101775.25;8362349;28;20072;-64
2022/04/28 14:47:49;;;;;;;15.03;10.00;;;;;;;18.72;50.03;101773.34;8370715;28;20045;-64
2022/04/28 14:52:21;;;;;;;13.77;8.40;;;;;;;18.52;49.77;101771.00;8360566;28;20279;-64
2022/04/28 14:56:10;;;;;;;12.70;8.30;;;;;;;18.84;47.25;101772.03;8378146;28;20444;-64
2022/04/28 15:00:16;;;;;;;13.73;7.90;;;;;;;18.62;47.26;101775.34;8351459;28;20059;-64
2022/04/28 15:04:17;;;;;;;21.13;11.00;;;;;;;18.61;50.17;101765.44;8360873;28;20047;-64
2022/04/28 15:08:18;;;;;;;20.45;10.75;;;;;;;18.40;50.38;101762.19;8359787;28;20032;-64
2022/04/28 15:12:18;;;;;;;21.00;9.45;;;;;;;18.48;51.05;101770.44;8371255;28;20063;-64
2022/04/28 15:16:19;;;;;;;16.67;10.77;;;;;;;18.35;49.23;101774.59;8362303;28;20049;-64
2022/04/28 15:20:20;;;;;;;17.50;10.07;;;;;;;18.36;49.55;101768.97;8356953;28;20068;-64
2022/04/28 15:24:20;;;;;;;16.63;9.85;;;;;;;18.49;49.08;101761.22;8361353;28;20079;-64
2022/04/28 15:28:21;;;;;;;18.67;9.82;;;;;;;18.45;49.00;101773.50;8368522;28;20048;-64
2022/04/28 15:32:21;;;;;;;15.75;9.25;;;;;;;18.30;48.18;101775.06;8355176;28;20044;-64
2022/04/28 15:36:21;;;;;;;18.80;9.85;;;;;;;18.30;47.39;101777.81;8365754;28;20186;-64
2022/04/28 15:40:22;;;;;;;17.23;7.40;;;;;;;18.23;46.95;101768.53;8373876;28;20400;-64
2022/04/28 15:44:22;;;;;;;13.10;7.55;;;;;;;18.54;47.99;101761.59;8368804;28;20263;-64
2022/04/28 15:48:23;;;;;;;14.07;7.75;;;;;;;18.52;46.38;101755.44;8369516;28;20059;-62
2022/04/28 15:52:25;;;;;;;16.27;8.98;;;;;;;18.47;46.92;101763.25;8370537;28;20040;-62
2022/04/28 15:56:25;;;;;;;16.58;8.85;;;;;;;18.55;48.18;101755.13;8375128;28;20115;-61
2022/04/28 16:00:25;;;;;;;23.05;11.55;;;;;;;18.53;47.83;101757.16;8358486;28;20043;-61
2022/04/28 16:04:27;;;;;;;17.42;9.75;;;;;;;18.43;47.71;101756.41;8365006;28;20067;-65
2022/04/28 16:08:27;;;;;;;19.85;9.40;;;;;;;18.35;47.64;101750.81;8361652;28;20066;-64
2022/04/28 16:12:28;;;;;;;19.23;8.93;;;;;;;18.27;47.21;101756.22;8363697;28;20040;-65
2022/04/28 16:16:28;;;;;;;21.88;10.35;;;;;;;18.26;48.27;101756.38;8368401;28;20044;-64
2022/04/28 16:20:29;;;;;;;17.27;9.45;;;;;;;18.24;48.61;101753.81;8377918;28;20124;-64
2022/04/28 16:24:29;;;;;;;22.98;9.50;;;;;;;18.28;48.21;101747.00;8373364;28;20045;-65
2022/04/28 16:28:30;;;;;;;17.15;9.80;;;;;;;18.17;47.74;101755.47;8375646;28;20167;-65
2022/04/28 16:32:34;;;;;;;21.02;9.23;;;;;;;18.22;46.58;101746.78;8372820;28;20497;-65
2022/04/28 16:36:35;;;;;;;18.95;9.18;;;;;;;18.31;45.83;101740.34;8364535;28;20131;-65
2022/04/28 16:40:35;;;;;;;17.38;9.48;;;;;;;18.30;46.80;101744.13;8368190;28;20052;-65
2022/04/28 16:44:37;;;;;;;14.00;8.00;;;;;;;18.18;45.43;101746.28;8373552;28;20048;-65
2022/04/28 16:48:37;;;;;;;16.33;8.73;;;;;;;18.03;45.38;101741.50;8375209;28;20041;-65
2022/04/28 16:52:40;;;;;;;16.05;7.88;;;;;;;18.14;45.04;101742.09;8355797;28;20044;-65
2022/04/28 16:56:40;;;;;;;20.35;9.25;;;;;;;18.05;45.62;101732.13;8366935;28;20127;-65
2022/04/28 17:00:42;;;;;;;13.45;8.07;;;;;;;17.99;45.08;101742.84;8353263;28;20098;-65
2022/04/28 17:04:43;;;;;;;19.45;8.38;;;;;;;17.99;46.28;101745.59;8357436;28;20225;-65
2022/04/28 17:08:44;;;;;;;15.48;9.25;;;;;;;17.97;47.60;101755.81;8366235;28;20087;-65
2022/04/28 17:12:46;;;;;;;20.05;9.80;;;;;;;17.94;48.04;101743.31;8363686;28;20052;-65
2022/04/28 17:16:49;;;;;;;16.30;9.85;;;;;;;17.89;49.00;101756.63;8353689;28;20048;-65
2022/04/28 17:20:50;;;;;;;19.65;10.55;;;;;;;17.89;49.02;101750.28;8353038;28;20036;-65
2022/04/28 17:24:51;;;;;;;23.67;10.55;;;;;;;17.89;48.61;101744.78;8345063;28;20040;-65
2022/04/28 17:28:51;;;;;;;19.67;9.63;;;;;;;17.86;49.41;101748.72;8353003;28;20174;-65
2022/04/28 17:32:52;;;;;;;24.23;12.05;;;;;;;17.77;50.27;101749.66;8344361;28;20053;-65
2022/04/28 17:36:52;;;;;;;17.88;10.65;;;;;;;17.82;49.71;101754.66;8351609;28;20504;-65
2022/04/28 17:40:53;;;;;;;18.83;10.10;;;;;;;17.78;50.91;101753.25;8351950;28;20041;-65
2022/04/28 17:44:53;;;;;;;21.03;11.07;;;;;;;17.69;51.48;101757.81;8358413;28;20079;-65
2022/04/28 17:48:53;;;;;;;24.00;11.32;;;;;;;17.63;52.38;101765.75;8352081;28;20287;-65
2022/04/28 17:52:54;;;;;;;19.37;9.90;;;;;;;17.55;53.32;101763.81;8361299;28;20045;-65
2022/04/28 18:01:15;;;;;;;20.48;9.93;;;;;;;17.23;54.89;101774.38;8325026;28;20037;-63
2022/04/28 18:05:15;;;;;;;20.48;10.68;;;;;;;17.09;55.47;101764.81;8317331;28;20056;-64
2022/04/28 18:09:17;;;;;;;22.30;10.27;;;;;;;16.95;56.57;101772.63;8319938;28;20442;-64
2022/04/28 18:13:17;;;;;;;27.75;10.82;;;;;;;16.77;57.33;101777.19;8316843;28;20033;-65
2022/04/28 18:17:18;;;;;;;21.90;9.90;;;;;;;16.58;58.39;101779.94;8320188;28;20095;-64
2022/04/28 18:21:18;;;;;;;24.53;10.97;;;;;;;16.36;59.89;101777.53;8329562;28;20099;-65
2022/04/28 18:25:19;;;;;;;22.45;10.95;;;;;;;16.16;60.42;101782.16;8321354;28;20306;-64
2022/04/28 18:29:20;;;;;;;27.63;11.07;;;;;;;16.06;60.87;101786.78;8325643;28;20041;-64
2022/04/28 18:33:20;;;;;;;23.58;11.43;;;;;;;15.84;61.97;101791.66;8323123;28;20059;-64
2022/04/28 18:46:02;;;;;;;22.17;9.65;;;;;;;15.09;66.83;101792.22;8322490;28;20037;-64
2022/04/28 18:50:04;;;;;;;22.05;11.65;;;;;;;14.13;72.14;101792.72;8321265;28;20043;-64
2022/04/28 18:54:04;;;;;;;18.08;10.32;;;;;;;14.25;71.35;101794.41;8313992;28;20049;-64
2022/04/28 18:58:05;;;;;;;24.05;10.00;;;;;;;14.10;71.00;101794.81;8356603;28;20245;-64